createdAt,value
2024-04-16T00:00:05.428Z,6.40
2024-04-16T00:05:17.547Z,5.93
2024-04-16T00:10:22.124Z,5.07
2024-04-16T00:15:27.042Z,6.43
2024-04-16T00:20:32.045Z,4.13
2024-04-16T00:25:36.197Z,6.25
2024-04-16T00:30:40.356Z,5.05
2024-04-16T00:35:45.083Z,6.88
2024-04-16T00:40:49.318Z,4.03
2024-04-16T00:46:00.663Z,6.63
2024-04-16T00:51:04.773Z,5.10
2024-04-16T00:56:10.754Z,6.47
2024-04-16T01:01:14.826Z,8.55
2024-04-16T01:06:19.715Z,10.05
2024-04-16T01:11:30.870Z,8.48
2024-04-16T01:16:35.242Z,9.10
2024-04-16T01:21:39.267Z,7.93
2024-04-16T01:26:43.137Z,8.18
2024-04-16T01:31:47.261Z,7.95
2024-04-16T01:36:51.285Z,5.82
2024-04-16T01:41:55.313Z,8.85
2024-04-16T01:46:59.280Z,7.75
2024-04-16T01:52:03.102Z,6.90
2024-04-16T01:57:08.070Z,8.43
2024-04-16T02:02:11.913Z,6.28
2024-04-16T02:07:15.957Z,9.40
2024-04-16T02:12:19.904Z,7.43
2024-04-16T02:17:25.932Z,6.60
2024-04-16T02:22:29.965Z,5.50
2024-04-16T02:27:33.739Z,6.80
2024-04-16T02:32:37.749Z,5.32
2024-04-16T02:37:41.924Z,4.82
2024-04-16T02:42:45.939Z,5.10
2024-04-16T02:47:50.143Z,6.53
2024-04-16T02:52:53.972Z,4.97
2024-04-16T02:57:58.101Z,9.85
2024-04-16T03:03:02.009Z,5.38
2024-04-16T03:08:06.421Z,6.35
2024-04-16T03:13:10.538Z,4.95
2024-04-16T03:18:14.331Z,6.00
2024-04-16T03:23:18.342Z,3.88
2024-04-16T03:28:22.158Z,5.22
2024-04-16T03:33:26.220Z,6.43
2024-04-16T03:38:31.600Z,7.70
2024-04-16T03:43:36.449Z,3.00
2024-04-16T03:48:40.397Z,3.45
2024-04-16T03:53:44.338Z,4.40
2024-04-16T03:59:16.924Z,5.00
2024-04-16T04:04:21.006Z,6.13
2024-04-16T04:09:24.923Z,6.95
2024-04-16T04:14:29.078Z,6.85
2024-04-16T04:19:32.927Z,6.68
2024-04-16T04:24:37.051Z,3.25
2024-04-16T04:29:41.024Z,6.60
2024-04-16T04:34:44.993Z,4.50
2024-04-16T04:39:49.308Z,7.03
2024-04-16T04:44:54.182Z,8.70
2024-04-16T04:49:58.221Z,7.80
2024-04-16T04:55:05.708Z,5.10
2024-04-16T05:00:10.334Z,7.22
2024-04-16T05:05:14.219Z,4.75
2024-04-16T05:10:18.239Z,5.38
2024-04-16T05:15:22.368Z,6.13
2024-04-16T05:20:26.343Z,8.95
2024-04-16T05:25:30.339Z,5.63
2024-04-16T05:30:34.216Z,5.18
2024-04-16T05:35:38.246Z,3.72
2024-04-16T05:40:42.196Z,15.82
2024-04-16T05:45:46.451Z,9.60
2024-04-16T05:50:50.421Z,4.32
2024-04-16T05:55:54.319Z,3.97
2024-04-16T06:00:58.419Z,5.63
2024-04-16T06:06:02.787Z,6.00
2024-04-16T06:11:07.252Z,12.05
2024-04-16T06:16:11.324Z,6.13
2024-04-16T06:21:15.104Z,11.65
2024-04-16T06:26:19.768Z,7.93
2024-04-16T06:31:23.722Z,8.27
2024-04-16T06:36:27.617Z,7.38
2024-04-16T06:41:32.063Z,11.85
2024-04-16T06:46:36.047Z,4.60
2024-04-16T06:51:40.152Z,3.28
2024-04-16T06:56:43.992Z,5.20
2024-04-16T07:01:48.011Z,2.95
2024-04-16T07:06:51.905Z,3.47
2024-04-16T07:11:55.653Z,3.33
2024-04-16T07:16:59.583Z,3.03
2024-04-16T07:22:03.566Z,3.13
2024-04-16T07:27:08.054Z,3.50
2024-04-16T07:32:12.047Z,3.15
2024-04-16T07:37:16.025Z,2.47
2024-04-16T07:42:20.270Z,2.95
2024-04-16T07:47:24.355Z,2.67
2024-04-16T07:52:28.303Z,3.33
2024-04-16T07:57:32.188Z,2.83
2024-04-16T08:02:35.953Z,3.20
2024-04-16T08:07:39.939Z,4.00
2024-04-16T08:12:43.772Z,3.80
2024-04-16T08:17:49.167Z,3.58
2024-04-16T08:22:53.700Z,2.80
2024-04-16T08:27:57.687Z,2.10
2024-04-16T08:33:01.698Z,2.40
2024-04-16T08:38:06.174Z,2.92
2024-04-16T08:43:11.656Z,4.38
2024-04-16T08:48:16.583Z,4.55
2024-04-16T08:53:21.897Z,3.33
2024-04-16T08:58:25.640Z,3.35
2024-04-16T09:03:30.209Z,2.70
2024-04-16T09:08:37.518Z,2.35
2024-04-16T09:13:45.405Z,2.35
2024-04-16T09:18:49.558Z,2.70
2024-04-16T09:23:56.834Z,3.50
2024-04-16T09:29:00.950Z,1.60
2024-04-16T09:34:09.439Z,2.92
2024-04-16T09:39:19.806Z,1.53
2024-04-16T09:44:23.866Z,2.50
2024-04-16T09:49:36.159Z,3.72
2024-04-16T09:54:50.587Z,3.22
2024-04-16T10:05:01.203Z,2.33
2024-04-16T10:10:09.541Z,2.07
2024-04-16T10:15:17.499Z,2.97
2024-04-16T10:20:25.721Z,3.15
2024-04-16T10:25:36.069Z,3.22
2024-04-16T10:30:41.033Z,2.22
2024-04-16T10:35:47.803Z,2.50
2024-04-16T10:40:59.381Z,4.90
2024-04-16T10:46:08.216Z,2.75
2024-04-16T10:51:15.670Z,4.40
2024-04-16T10:56:19.673Z,1.98
2024-04-16T11:01:25.532Z,2.92
2024-04-16T11:06:29.654Z,2.42
2024-04-16T11:11:37.190Z,2.17
2024-04-16T11:16:43.216Z,2.70
2024-04-16T11:21:49.259Z,1.73
2024-04-16T11:26:53.235Z,2.17
2024-04-16T11:31:57.735Z,2.28
2024-04-16T11:37:01.951Z,3.00
2024-04-16T11:42:11.722Z,2.78
2024-04-16T11:47:16.019Z,5.43
2024-04-16T11:52:20.534Z,1.83
2024-04-16T11:57:24.390Z,2.97
2024-04-16T12:02:28.290Z,4.13
2024-04-16T12:07:32.396Z,5.95
2024-04-16T12:12:36.300Z,2.42
2024-04-16T12:17:40.510Z,3.22
2024-04-16T12:22:44.439Z,2.08
2024-04-16T12:27:49.190Z,3.13
2024-04-16T12:33:01.288Z,8.13
2024-04-16T12:38:10.043Z,2.50
2024-04-16T12:43:16.339Z,3.75
2024-04-16T12:48:22.425Z,4.45
2024-04-16T12:53:26.266Z,5.13
2024-04-16T12:58:30.266Z,3.85
2024-04-16T13:03:34.243Z,2.83
2024-04-16T13:08:38.399Z,2.83
2024-04-16T13:13:42.377Z,3.08
2024-04-16T13:18:46.346Z,4.53
2024-04-16T13:23:50.331Z,2.40
2024-04-16T13:28:54.640Z,5.60
2024-04-16T13:33:58.618Z,5.57
2024-04-16T13:39:02.603Z,5.32
2024-04-16T13:44:06.484Z,7.07
2024-04-16T13:49:10.519Z,4.45
2024-04-16T13:54:14.490Z,4.53
2024-04-16T13:59:18.376Z,2.47
2024-04-16T14:04:22.422Z,4.80
2024-04-16T14:09:26.418Z,4.45
2024-04-16T14:14:30.510Z,5.03
2024-04-16T14:19:34.244Z,18.10
2024-04-16T14:24:39.733Z,13.70
2024-04-16T14:29:43.551Z,7.85
2024-04-16T14:34:47.811Z,12.55
2024-04-16T14:39:51.904Z,5.28
2024-04-16T14:44:55.741Z,5.82
2024-04-16T14:49:59.743Z,6.95
2024-04-16T14:55:03.716Z,12.65
2024-04-16T15:00:08.481Z,10.15
2024-04-16T15:05:12.310Z,8.48
2024-04-16T15:10:16.216Z,10.48
2024-04-16T15:15:21.710Z,10.35
2024-04-16T15:20:25.672Z,17.00
2024-04-16T15:25:29.655Z,12.13
2024-04-16T15:30:33.537Z,16.92
2024-04-16T15:35:54.987Z,13.60
2024-04-16T15:40:59.255Z,8.95
2024-04-16T15:46:03.882Z,9.30
2024-04-16T15:51:07.961Z,16.30
2024-04-16T15:56:12.210Z,11.88
2024-04-16T16:01:16.058Z,15.25
2024-04-16T16:06:20.447Z,12.23
2024-04-16T16:11:24.536Z,12.95
2024-04-16T16:16:28.736Z,9.93
2024-04-16T16:21:32.604Z,14.10
2024-04-16T16:26:36.238Z,12.25
2024-04-16T16:31:41.191Z,10.77
2024-04-16T16:36:45.196Z,13.45
2024-04-16T16:41:49.150Z,12.60
2024-04-16T16:46:53.369Z,9.10
2024-04-16T16:51:57.138Z,12.30
2024-04-16T16:57:02.529Z,11.60
2024-04-16T17:02:07.002Z,14.18
2024-04-16T17:07:11.152Z,14.20
2024-04-16T17:12:16.960Z,12.40
2024-04-16T17:17:20.902Z,15.88
2024-04-16T17:22:24.857Z,11.27
2024-04-16T17:27:29.125Z,12.38
2024-04-16T17:32:33.159Z,16.15
2024-04-16T17:37:37.150Z,14.88
2024-04-16T17:42:40.965Z,13.68
2024-04-16T17:47:44.932Z,12.57
2024-04-16T17:52:50.434Z,12.32
2024-04-16T17:57:54.410Z,13.38
2024-04-16T18:02:58.328Z,12.30
2024-04-16T18:08:02.301Z,12.95
2024-04-16T18:13:06.393Z,9.75
2024-04-16T18:18:10.574Z,11.90
2024-04-16T18:23:16.114Z,12.18
2024-04-16T18:28:22.017Z,9.07
2024-04-16T18:33:25.894Z,10.68
2024-04-16T18:38:30.336Z,11.23
2024-04-16T18:43:34.277Z,12.43
2024-04-16T18:48:38.690Z,11.65
2024-04-16T18:53:42.906Z,11.30
2024-04-16T18:58:46.968Z,13.98
2024-04-16T19:03:50.942Z,9.52
2024-04-16T19:08:54.758Z,11.73
2024-04-16T19:13:58.738Z,11.10
2024-04-16T19:19:05.030Z,8.45
2024-04-16T19:24:08.769Z,11.50
2024-04-16T19:29:12.663Z,12.60
2024-04-16T19:34:16.567Z,12.70
2024-04-16T19:39:20.646Z,15.13
2024-04-16T19:44:24.641Z,10.00
2024-04-16T19:49:28.717Z,12.00
2024-04-16T19:54:33.418Z,7.82
2024-04-16T19:59:40.757Z,10.65
2024-04-16T20:04:47.356Z,10.05
2024-04-16T20:09:55.310Z,9.40
2024-04-16T20:14:59.255Z,8.90
2024-04-16T20:20:03.165Z,9.65
2024-04-16T20:25:07.145Z,10.23
2024-04-16T20:30:11.915Z,8.95
2024-04-16T20:35:15.754Z,8.05
2024-04-16T20:40:19.860Z,9.73
2024-04-16T20:45:23.792Z,12.20
2024-04-16T20:50:27.846Z,11.30
2024-04-16T20:55:32.185Z,14.80
2024-04-16T21:00:36.664Z,8.02
2024-04-16T21:05:40.955Z,10.55
2024-04-16T21:10:47.104Z,11.23
2024-04-16T21:15:55.381Z,10.07
2024-04-16T21:20:59.322Z,12.32
2024-04-16T21:26:03.171Z,10.45
2024-04-16T21:31:07.281Z,11.18
2024-04-16T21:36:11.124Z,10.32
2024-04-16T21:41:14.916Z,9.38
2024-04-16T21:46:19.183Z,7.63
2024-04-16T21:51:23.209Z,8.85
2024-04-16T21:56:35.090Z,9.93
2024-04-16T22:01:38.895Z,10.70
2024-04-16T22:06:43.228Z,9.90
2024-04-16T22:11:47.039Z,12.45
2024-04-16T22:16:51.131Z,9.65
2024-04-16T22:21:54.829Z,10.02
2024-04-16T22:26:58.840Z,10.02
2024-04-16T22:32:02.776Z,10.10
2024-04-16T22:37:06.740Z,6.57
2024-04-16T22:42:10.739Z,6.80
2024-04-16T22:47:14.606Z,8.02
2024-04-16T22:52:18.542Z,9.38
2024-04-16T22:57:22.421Z,8.27
2024-04-16T23:02:26.363Z,8.95
2024-04-16T23:07:30.351Z,8.65
2024-04-16T23:12:34.689Z,8.23
2024-04-16T23:17:38.592Z,5.90
2024-04-16T23:22:42.798Z,6.97
2024-04-16T23:27:46.578Z,7.70
2024-04-16T23:32:50.727Z,7.00
2024-04-16T23:37:54.912Z,6.93
2024-04-16T23:42:58.882Z,6.82
2024-04-16T23:48:02.907Z,7.95
2024-04-16T23:53:06.849Z,7.90
2024-04-16T23:58:10.814Z,5.90
